Fayetteville, Illinois
Current Conditions -  °F | °C
As of 3:08 AM on Thursday 27 Nov 2014 (Local Time) from KBLV Reporting Station
Overcast Overcast  
Wind Chill: 20°   Ceiling: 1000
Heat Index: 30°   Visibility: 10mi
Dew Point: 30°   Wind: 13mph
Humidity: 100%   Direction: 330°NNW
Pressure: 30.31"   Gusts: NA
Location:  38.459°N, 89.7628°W
Report Text: KBLV 270908Z AUTO 33011KT 10SM OVC010 M01/M01 A3031 RMK AO2
Loading
Personal Weather Stations






























Interactive Weather Map New forecast layout! Learn more

10-Day Weather Forecast

Advertisements
Track Severe Weather on mobile